Time;durP1;ratioP1;P1;durP2;ratioP2;P2;SDS_P1;SDS_P2;PMS_P1;PMS_P2;Temp;Humidity;BMP_temperature;BMP_pressure;BME280_temperature;BME280_humidity;BME280_pressure;Samples;Min_cycle;Max_cycle;Signal;HPM_P1;HPM_P2
2023/10/21 00:00:09;;;;;;;7.45;3.63;;;14.10;87.00;;;;;;5079503;28;20028;-67
2023/10/21 00:02:38;;;;;;;6.20;3.35;;;14.10;86.90;;;;;;5091792;28;20113;-67
2023/10/21 00:05:05;;;;;;;9.13;4.05;;;14.00;86.90;;;;;;5077160;28;20449;-67
2023/10/21 00:07:31;;;;;;;7.40;4.10;;;14.00;86.90;;;;;;5081817;28;20024;-67
2023/10/21 00:09:58;;;;;;;9.63;4.53;;;14.00;86.90;;;;;;5074204;28;20077;-67
2023/10/21 00:12:25;;;;;;;8.18;4.00;;;14.00;86.90;;;;;;5090093;28;20027;-67
2023/10/21 00:14:51;;;;;;;7.57;4.03;;;14.00;86.80;;;;;;5088052;28;20333;-67
2023/10/21 00:17:17;;;;;;;8.68;3.95;;;14.00;86.80;;;;;;5086925;28;20135;-67
2023/10/21 00:19:43;;;;;;;9.18;4.05;;;14.00;86.80;;;;;;5078828;28;20469;-67
2023/10/21 00:22:10;;;;;;;7.57;3.97;;;14.00;86.70;;;;;;5087061;28;20365;-67
2023/10/21 00:24:36;;;;;;;7.78;3.55;;;14.00;86.70;;;;;;5080164;28;20028;-67
2023/10/21 00:27:01;;;;;;;7.32;3.67;;;14.00;86.70;;;;;;5091289;28;20201;-67
2023/10/21 00:29:27;;;;;;;6.97;3.50;;;14.00;86.70;;;;;;5075333;28;20025;-67
2023/10/21 00:31:53;;;;;;;6.63;3.40;;;14.00;86.60;;;;;;5093853;28;20028;-67
2023/10/21 00:34:19;;;;;;;7.60;3.70;;;14.00;86.60;;;;;;5106110;28;20033;-67
2023/10/21 00:36:44;;;;;;;8.65;3.83;;;14.00;86.60;;;;;;5085042;28;20030;-67
2023/10/21 00:39:13;;;;;;;7.85;3.70;;;13.90;86.50;;;;;;5075435;28;20055;-67
2023/10/21 00:41:39;;;;;;;8.63;3.45;;;13.90;86.50;;;;;;5090744;28;20047;-67
2023/10/21 00:44:05;;;;;;;7.45;3.63;;;13.90;86.50;;;;;;5092722;28;20038;-67
2023/10/21 00:46:31;;;;;;;8.13;4.00;;;13.90;86.50;;;;;;5093102;28;20114;-67
2023/10/21 00:48:57;;;;;;;7.40;3.53;;;13.90;86.50;;;;;;5084466;28;20094;-67
2023/10/21 00:51:25;;;;;;;7.07;3.85;;;13.90;86.50;;;;;;5093816;28;20028;-67
2023/10/21 00:53:52;;;;;;;7.72;3.08;;;13.90;86.50;;;;;;5092222;28;20349;-67
2023/10/21 00:56:18;;;;;;;8.13;3.30;;;13.90;86.50;;;;;;5090827;28;20048;-67
2023/10/21 00:58:44;;;;;;;7.93;3.00;;;13.90;86.50;;;;;;5087630;28;20349;-67
2023/10/21 01:01:10;;;;;;;6.43;3.35;;;13.90;86.50;;;;;;5090871;28;20024;-67
2023/10/21 01:03:37;;;;;;;7.43;3.45;;;13.90;86.50;;;;;;5078864;28;20024;-66
2023/10/21 01:06:03;;;;;;;7.72;3.25;;;14.00;86.60;;;;;;5092556;28;20437;-66
2023/10/21 01:08:30;;;;;;;6.50;3.08;;;14.00;86.50;;;;;;5079835;28;20021;-67
2023/10/21 01:10:58;;;;;;;7.05;3.47;;;14.00;86.50;;;;;;5069854;28;20368;-67
2023/10/21 01:13:23;;;;;;;6.20;3.22;;;14.00;86.50;;;;;;5081886;28;20033;-66
2023/10/21 01:15:49;;;;;;;7.22;3.30;;;14.00;86.50;;;;;;5091403;28;20016;-67
2023/10/21 01:18:15;;;;;;;6.47;3.10;;;14.00;86.50;;;;;;5084268;28;20024;-66
2023/10/21 01:20:41;;;;;;;6.82;3.22;;;14.00;86.40;;;;;;5080293;28;20036;-67
2023/10/21 01:23:08;;;;;;;9.30;3.40;;;14.00;86.50;;;;;;5071059;28;20025;-67
2023/10/21 01:25:34;;;;;;;8.43;3.40;;;14.10;86.50;;;;;;5086922;28;20024;-67
2023/10/21 01:28:01;;;;;;;8.15;3.63;;;14.10;87.20;;;;;;5088899;28;20421;-67
2023/10/21 01:30:27;;;;;;;6.93;3.53;;;14.00;86.50;;;;;;5081869;28;20029;-67
2023/10/21 01:32:53;;;;;;;7.18;3.15;;;14.00;86.50;;;;;;5083894;28;20361;-67
2023/10/21 01:35:19;;;;;;;7.82;3.50;;;14.00;86.50;;;;;;5093173;28;20455;-67
2023/10/21 01:37:45;;;;;;;6.80;3.25;;;14.10;86.60;;;;;;5097593;28;20025;-67
2023/10/21 01:40:14;;;;;;;11.50;3.80;;;14.10;86.60;;;;;;5087999;28;20046;-67
2023/10/21 01:42:41;;;;;;;7.15;3.17;;;14.10;86.60;;;;;;5087892;28;20016;-67
2023/10/21 01:45:08;;;;;;;10.07;3.20;;;14.10;86.60;;;;;;5082281;28;20028;-67
2023/10/21 01:47:35;;;;;;;6.90;3.72;;;14.10;86.60;;;;;;5089695;28;20029;-67
2023/10/21 01:50:03;;;;;;;8.05;3.20;;;14.10;86.60;;;;;;5082570;28;20063;-67
2023/10/21 01:52:29;;;;;;;7.18;3.25;;;14.10;86.60;;;;;;5091902;28;20095;-67
2023/10/21 01:54:55;;;;;;;8.23;3.42;;;14.10;86.60;;;;;;5079893;28;20029;-67
2023/10/21 01:57:21;;;;;;;7.00;3.80;;;14.10;86.60;;;;;;5089755;28;20181;-67
2023/10/21 01:59:47;;;;;;;7.00;3.53;;;14.10;86.60;;;;;;5075501;28;20029;-67
2023/10/21 02:02:12;;;;;;;9.57;3.42;;;14.10;86.60;;;;;;5084952;28;20027;-67
2023/10/21 02:04:38;;;;;;;5.95;3.13;;;14.10;86.50;;;;;;5087996;28;20023;-67
2023/10/21 02:07:04;;;;;;;7.00;3.67;;;14.10;86.50;;;;;;5079723;28;20028;-67
2023/10/21 02:09:30;;;;;;;7.47;3.20;;;14.10;86.50;;;;;;5079452;28;20037;-67
2023/10/21 02:11:56;;;;;;;6.22;3.20;;;14.10;87.10;;;;;;5076515;28;20020;-67
2023/10/21 02:14:23;;;;;;;7.78;3.15;;;14.10;86.50;;;;;;5089403;28;20123;-67
2023/10/21 02:16:55;;;;;;;6.85;3.63;;;14.10;86.50;;;;;;5078046;28;20012;-67
2023/10/21 02:19:21;;;;;;;7.00;3.75;;;14.10;87.10;;;;;;5082552;28;20043;-67
2023/10/21 02:21:47;;;;;;;7.05;3.50;;;14.10;86.40;;;;;;5059213;28;20515;-67
2023/10/21 02:24:13;;;;;;;8.18;3.92;;;14.10;86.40;;;;;;5085125;28;20054;-67
2023/10/21 02:26:40;;;;;;;7.65;4.05;;;14.10;86.40;;;;;;5083721;28;20093;-67
2023/10/21 02:29:06;;;;;;;7.43;3.53;;;14.00;86.40;;;;;;5084492;28;20384;-67
2023/10/21 02:31:32;;;;;;;7.45;3.50;;;14.00;86.40;;;;;;5082642;28;20074;-67
2023/10/21 02:33:58;;;;;;;8.98;3.63;;;14.00;86.40;;;;;;5081720;28;20116;-67
2023/10/21 02:36:24;;;;;;;9.73;4.03;;;14.00;86.40;;;;;;5077123;28;20383;-67
2023/10/21 02:38:53;;;;;;;6.65;3.38;;;14.00;86.40;;;;;;5082514;28;20020;-67
2023/10/21 02:41:19;;;;;;;7.18;3.63;;;14.00;86.40;;;;;;5075501;28;20024;-67
2023/10/21 02:43:46;;;;;;;7.90;3.97;;;14.00;86.40;;;;;;5074543;28;20043;-67
2023/10/21 02:46:13;;;;;;;7.55;3.75;;;14.00;86.40;;;;;;5073288;28;20028;-66
2023/10/21 02:48:40;;;;;;;8.75;3.78;;;14.00;86.40;;;;;;5087265;28;20024;-67
2023/10/21 02:51:13;;;;;;;11.15;4.07;;;14.00;86.40;;;;;;5074541;28;20025;-67
2023/10/21 02:53:42;;;;;;;6.10;3.42;;;14.00;86.40;;;;;;5086313;28;20039;-67
2023/10/21 02:56:09;;;;;;;8.52;4.30;;;14.00;86.40;;;;;;5090310;28;20093;-67
2023/10/21 02:58:36;;;;;;;7.35;4.15;;;14.00;86.40;;;;;;5088280;28;20043;-67
2023/10/21 03:01:21;;;;;;;8.98;4.30;;;14.00;86.40;;;;;;5082918;28;20027;-67
2023/10/21 03:03:48;;;;;;;8.60;4.25;;;14.00;86.30;;;;;;5101175;28;20060;-67
2023/10/21 03:06:15;;;;;;;8.63;4.25;;;14.00;86.40;;;;;;5095830;28;20032;-67
2023/10/21 03:08:41;;;;;;;7.10;3.88;;;14.00;86.40;;;;;;5097661;28;20028;-67
2023/10/21 03:11:08;;;;;;;8.40;4.35;;;14.00;86.40;;;;;;5112344;28;20363;-67
2023/10/21 03:13:38;;;;;;;8.55;4.50;;;14.00;86.40;;;;;;5082519;28;20459;-67
2023/10/21 03:16:10;;;;;;;8.35;4.07;;;14.00;86.40;;;;;;5098536;28;20024;-67
2023/10/21 03:18:37;;;;;;;8.73;4.30;;;14.00;86.50;;;;;;5098116;28;20020;-67
2023/10/21 03:21:03;;;;;;;6.88;4.22;;;14.00;86.50;;;;;;5098173;28;20023;-66
2023/10/21 03:23:30;;;;;;;7.60;4.28;;;14.00;86.50;;;;;;5103361;28;20488;-66
2023/10/21 03:26:03;;;;;;;9.40;4.10;;;14.00;86.60;;;;;;5100035;28;20036;-67
2023/10/21 03:28:29;;;;;;;8.43;4.43;;;14.00;86.60;;;;;;5093161;28;20039;-67
2023/10/21 03:30:59;;;;;;;8.88;5.38;;;14.00;86.60;;;;;;5106116;28;20031;-67
2023/10/21 03:33:25;;;;;;;9.00;4.68;;;14.00;86.60;;;;;;5106585;28;20077;-67
2023/10/21 03:35:52;;;;;;;8.63;4.78;;;14.00;86.60;;;;;;5098579;28;20036;-67
2023/10/21 03:38:18;;;;;;;8.98;4.75;;;14.00;86.60;;;;;;5091914;28;20020;-67
2023/10/21 03:40:53;;;;;;;8.95;4.60;;;14.00;86.60;;;;;;5099758;28;20372;-67
2023/10/21 03:43:19;;;;;;;8.45;4.97;;;14.00;86.60;;;;;;5080985;28;20036;-67
2023/10/21 03:45:44;;;;;;;9.43;4.50;;;14.00;86.60;;;;;;5085293;28;20095;-67
2023/10/21 03:48:10;;;;;;;7.93;4.90;;;14.00;86.60;;;;;;5088540;28;20119;-67
2023/10/21 03:50:36;;;;;;;9.25;4.90;;;14.00;86.60;;;;;;5076535;28;20409;-67
2023/10/21 03:53:01;;;;;;;10.40;5.00;;;14.00;86.60;;;;;;5079935;28;20036;-67
2023/10/21 03:55:27;;;;;;;10.38;4.90;;;14.00;86.60;;;;;;5083459;28;20020;-67
2023/10/21 03:57:54;;;;;;;7.82;4.25;;;14.10;86.70;;;;;;5083681;28;20476;-67
2023/10/21 04:00:20;;;;;;;7.75;4.70;;;14.10;86.70;;;;;;5083787;28;20025;-67
2023/10/21 04:02:46;;;;;;;10.13;4.80;;;14.10;86.60;;;;;;5075610;28;20032;-67
2023/10/21 04:05:12;;;;;;;7.43;4.55;;;14.00;86.60;;;;;;5083199;28;20113;-66
2023/10/21 04:07:37;;;;;;;10.10;4.95;;;14.10;86.70;;;;;;5081812;28;20047;-66
2023/10/21 04:10:04;;;;;;;8.85;4.50;;;14.10;86.70;;;;;;5073368;28;20096;-67
2023/10/21 04:12:29;;;;;;;8.25;4.35;;;14.10;86.70;;;;;;5073904;28;20036;-66
2023/10/21 04:14:56;;;;;;;9.88;4.28;;;14.10;86.70;;;;;;5084375;28;20055;-66
2023/10/21 04:17:22;;;;;;;10.48;4.90;;;14.00;86.70;;;;;;5074291;28;20290;-66
2023/10/21 04:19:47;;;;;;;9.40;4.30;;;14.00;86.70;;;;;;5086103;28;20055;-66
2023/10/21 04:22:13;;;;;;;9.20;5.03;;;14.00;86.70;;;;;;5067270;28;20031;-67
2023/10/21 04:24:39;;;;;;;9.18;4.57;;;14.00;86.70;;;;;;5089982;28;20032;-67
2023/10/21 04:27:05;;;;;;;10.50;4.60;;;14.00;86.70;;;;;;5090998;28;20127;-66
2023/10/21 04:29:33;;;;;;;8.00;4.30;;;14.00;86.70;;;;;;5087636;28;20111;-67
2023/10/21 04:31:59;;;;;;;8.05;4.30;;;14.00;86.70;;;;;;5106487;28;20035;-67
2023/10/21 04:34:25;;;;;;;7.47;4.60;;;14.00;86.70;;;;;;5096327;28;20042;-66
2023/10/21 04:36:51;;;;;;;8.27;4.22;;;13.90;86.70;;;;;;5096276;28;20433;-67
2023/10/21 04:39:16;;;;;;;7.90;3.88;;;13.90;86.70;;;;;;5080313;28;20464;-66
2023/10/21 04:41:43;;;;;;;7.28;4.40;;;13.90;86.80;;;;;;5089111;28;20076;-67
2023/10/21 04:44:12;;;;;;;8.15;4.72;;;13.90;86.80;;;;;;5095444;28;20024;-66
2023/10/21 04:46:38;;;;;;;8.30;4.55;;;13.90;86.70;;;;;;5100820;28;20363;-66
2023/10/21 04:49:04;;;;;;;7.10;4.07;;;13.90;86.80;;;;;;5089086;28;20029;-67
2023/10/21 04:51:29;;;;;;;8.93;4.57;;;13.90;87.40;;;;;;5092194;28;20032;-66
2023/10/21 04:53:55;;;;;;;9.38;4.88;;;13.90;86.80;;;;;;5087968;28;20353;-67
2023/10/21 04:56:21;;;;;;;8.65;4.50;;;13.80;86.60;;;;;;5086643;28;20514;-67
2023/10/21 04:58:46;;;;;;;8.85;4.00;;;13.80;86.60;;;;;;5085438;28;20039;-66
2023/10/21 05:01:16;;;;;;;7.65;4.50;;;13.80;86.60;;;;;;5078134;28;20020;-66
2023/10/21 05:03:43;;;;;;;8.38;4.20;;;13.80;86.60;;;;;;5075394;28;20043;-66
2023/10/21 05:06:09;;;;;;;8.38;4.40;;;13.70;86.60;;;;;;5083563;28;20037;-67
2023/10/21 05:08:35;;;;;;;8.63;4.00;;;13.70;86.60;;;;;;5076649;28;20032;-66
2023/10/21 05:11:00;;;;;;;6.85;3.80;;;13.70;86.60;;;;;;5081978;28;20411;-66
2023/10/21 05:13:26;;;;;;;6.70;3.38;;;13.70;86.60;;;;;;5072273;28;20024;-66
2023/10/21 05:15:52;;;;;;;7.53;3.70;;;13.70;86.70;;;;;;5096812;28;20524;-65
2023/10/21 05:18:18;;;;;;;6.72;3.60;;;13.80;86.80;;;;;;5075687;28;20024;-66
2023/10/21 05:20:44;;;;;;;10.35;4.47;;;13.80;86.80;;;;;;5084838;28;20029;-66
2023/10/21 05:23:11;;;;;;;7.30;3.80;;;13.80;86.70;;;;;;5074417;28;20453;-66
2023/10/21 05:25:37;;;;;;;8.63;3.70;;;13.90;86.80;;;;;;5081705;28;20052;-67
2023/10/21 05:28:03;;;;;;;7.80;3.47;;;14.00;86.80;;;;;;5061470;28;20071;-66
2023/10/21 05:30:29;;;;;;;7.88;4.03;;;14.00;86.80;;;;;;5079244;28;20036;-66
2023/10/21 05:32:55;;;;;;;7.15;3.17;;;14.00;86.80;;;;;;5086407;28;20032;-66
2023/10/21 05:35:21;;;;;;;7.00;3.92;;;14.00;86.80;;;;;;5081289;28;20361;-66
2023/10/21 05:37:47;;;;;;;7.90;4.43;;;14.00;86.80;;;;;;5074985;28;20115;-66
2023/10/21 05:40:13;;;;;;;8.27;3.85;;;14.10;86.90;;;;;;5089160;28;20077;-66
2023/10/21 05:42:39;;;;;;;6.85;3.67;;;14.00;86.90;;;;;;5083197;28;20040;-67
2023/10/21 05:45:08;;;;;;;7.03;3.38;;;14.10;86.90;;;;;;5087939;28;20028;-66
2023/10/21 05:47:35;;;;;;;12.10;3.72;;;14.00;86.90;;;;;;5080310;28;20445;-66
2023/10/21 05:50:01;;;;;;;7.95;3.63;;;14.10;87.00;;;;;;5079097;28;20040;-66
2023/10/21 05:52:27;;;;;;;10.35;4.03;;;14.10;87.00;;;;;;5080179;28;20365;-66
2023/10/21 05:54:52;;;;;;;9.25;3.95;;;14.10;87.10;;;;;;5077762;28;20039;-66
2023/10/21 05:57:19;;;;;;;7.68;3.78;;;14.10;87.10;;;;;;5079008;28;20037;-66
2023/10/21 05:59:45;;;;;;;7.70;3.60;;;14.10;87.10;;;;;;5079310;28;20028;-66
2023/10/21 06:02:11;;;;;;;8.35;3.95;;;14.10;87.10;;;;;;5091822;28;20081;-66
2023/10/21 06:04:37;;;;;;;8.70;3.92;;;14.10;87.10;;;;;;5087783;28;20105;-66
2023/10/21 06:07:03;;;;;;;7.90;3.70;;;14.10;87.10;;;;;;5094004;28;20464;-66
2023/10/21 06:09:29;;;;;;;8.77;3.60;;;14.10;87.10;;;;;;5095789;28;20226;-66
2023/10/21 06:11:54;;;;;;;6.45;3.78;;;14.10;87.10;;;;;;5093566;28;20048;-66
2023/10/21 06:14:21;;;;;;;7.03;3.53;;;14.10;87.10;;;;;;5094160;28;20039;-66
2023/10/21 06:16:47;;;;;;;7.68;3.70;;;14.10;87.10;;;;;;5095130;28;20211;-66
2023/10/21 06:19:13;;;;;;;9.02;4.03;;;14.10;87.10;;;;;;5095423;28;20035;-66
2023/10/21 06:21:40;;;;;;;9.13;3.53;;;14.10;87.20;;;;;;5117079;28;20088;-66
2023/10/21 06:24:07;;;;;;;7.35;3.45;;;14.10;87.10;;;;;;5078193;28;20097;-66
2023/10/21 06:26:33;;;;;;;6.82;3.05;;;14.10;87.20;;;;;;5075930;28;20024;-66
2023/10/21 06:28:59;;;;;;;7.75;3.22;;;14.10;87.10;;;;;;5092619;28;20046;-66
2023/10/21 06:31:26;;;;;;;10.50;4.38;;;14.20;87.20;;;;;;5096220;28;20071;-66
2023/10/21 06:33:55;;;;;;;7.43;3.55;;;14.20;87.10;;;;;;5092104;28;20036;-66
2023/10/21 06:36:21;;;;;;;9.00;3.50;;;14.30;87.10;;;;;;5097005;28;20028;-66
2023/10/21 06:38:50;;;;;;;7.38;3.28;;;14.20;87.00;;;;;;5093264;28;20020;-66
2023/10/21 06:41:19;;;;;;;8.50;3.47;;;14.30;87.00;;;;;;5092190;28;20024;-65
2023/10/21 06:43:45;;;;;;;6.82;3.60;;;14.30;87.00;;;;;;5090479;28;20190;-65
2023/10/21 06:46:13;;;;;;;7.22;3.58;;;14.30;86.90;;;;;;5093297;28;20111;-66
2023/10/21 06:48:39;;;;;;;7.95;3.60;;;14.30;86.90;;;;;;5089313;28;20357;-65
2023/10/21 06:51:05;;;;;;;9.75;3.30;;;14.30;86.90;;;;;;5090916;28;20032;-65
2023/10/21 06:53:30;;;;;;;8.48;3.50;;;14.30;86.90;;;;;;5087067;28;20552;-65
2023/10/21 06:55:56;;;;;;;7.63;3.85;;;14.30;86.90;;;;;;5075954;28;20150;-66
2023/10/21 06:58:22;;;;;;;8.38;3.72;;;14.30;86.90;;;;;;5084787;28;20365;-66
2023/10/21 07:00:48;;;;;;;7.22;3.70;;;14.30;86.90;;;;;;5081405;28;20157;-66
2023/10/21 07:03:14;;;;;;;10.02;3.75;;;14.30;86.90;;;;;;5074368;28;20446;-66
2023/10/21 07:05:40;;;;;;;6.95;3.63;;;14.30;86.90;;;;;;5088386;28;20081;-66
2023/10/21 07:08:06;;;;;;;7.80;4.18;;;14.30;86.90;;;;;;5086523;28;20103;-65
2023/10/21 07:10:33;;;;;;;8.82;4.35;;;14.30;86.80;;;;;;5083783;28;20103;-66
2023/10/21 07:12:59;;;;;;;9.13;4.72;;;14.30;86.80;;;;;;5091871;28;20036;-65
2023/10/21 07:15:27;;;;;;;12.15;4.68;;;14.30;86.80;;;;;;5065844;28;20054;-65
2023/10/21 07:17:54;;;;;;;9.50;4.60;;;14.30;86.80;;;;;;5088143;28;20040;-66
2023/10/21 07:20:20;;;;;;;10.40;4.30;;;14.30;86.80;;;;;;5093354;28;20024;-65
2023/10/21 07:22:46;;;;;;;9.20;4.57;;;14.40;86.80;;;;;;5073248;28;20036;-66
2023/10/21 07:25:12;;;;;;;9.68;4.38;;;14.40;86.80;;;;;;5082222;28;20020;-65
2023/10/21 07:27:37;;;;;;;6.43;4.00;;;14.40;86.80;;;;;;5092612;28;20028;-65
2023/10/21 07:30:04;;;;;;;9.57;4.10;;;14.40;86.70;;;;;;5092733;28;20037;-65
2023/10/21 07:32:30;;;;;;;11.35;4.80;;;14.50;86.90;;;;;;5092861;28;20036;-67
2023/10/21 07:34:56;;;;;;;10.05;4.03;;;14.40;86.90;;;;;;5087904;28;20348;-66
2023/10/21 07:37:22;;;;;;;7.75;3.80;;;14.50;87.00;;;;;;5084464;28;20104;-66
2023/10/21 07:39:47;;;;;;;8.02;3.75;;;14.50;87.00;;;;;;5083715;28;20020;-66
2023/10/21 07:42:14;;;;;;;7.72;3.38;;;14.50;87.10;;;;;;5075957;28;20457;-66
2023/10/21 07:44:41;;;;;;;7.82;3.67;;;14.50;87.10;;;;;;5070827;28;20036;-66
2023/10/21 07:47:07;;;;;;;6.60;3.38;;;14.50;87.10;;;;;;5091682;28;20024;-66
2023/10/21 07:49:33;;;;;;;7.97;3.20;;;14.50;87.10;;;;;;5066275;28;20020;-66
2023/10/21 07:52:00;;;;;;;6.97;3.17;;;14.50;87.10;;;;;;5089079;28;20357;-67
2023/10/21 07:54:26;;;;;;;7.47;3.10;;;14.50;87.20;;;;;;5073969;28;20356;-67
2023/10/21 07:56:53;;;;;;;5.93;3.17;;;14.60;87.30;;;;;;5100420;28;20055;-67
2023/10/21 07:59:22;;;;;;;7.75;3.20;;;14.60;87.40;;;;;;5108435;28;20016;-67
2023/10/21 08:01:48;;;;;;;9.18;3.58;;;14.60;87.60;;;;;;5114391;28;20024;-66
2023/10/21 08:04:14;;;;;;;7.28;3.17;;;14.60;87.60;;;;;;5115389;28;20027;-67
2023/10/21 08:06:43;;;;;;;6.82;3.10;;;14.60;87.60;;;;;;5111340;28;20114;-67
2023/10/21 08:09:09;;;;;;;6.55;3.00;;;14.60;87.60;;;;;;5086646;28;20036;-67
2023/10/21 08:11:35;;;;;;;7.07;2.90;;;14.70;87.70;;;;;;5087008;28;20420;-68
2023/10/21 08:14:00;;;;;;;8.38;3.20;;;14.70;87.70;;;;;;5075993;28;20031;-68
2023/10/21 08:16:26;;;;;;;5.80;3.00;;;14.70;87.70;;;;;;5083062;28;20048;-69
2023/10/21 08:18:52;;;;;;;7.50;3.03;;;14.70;87.80;;;;;;5101167;28;20115;-68
2023/10/21 08:21:18;;;;;;;6.65;2.80;;;14.70;87.90;;;;;;5105697;28;20115;-69
2023/10/21 08:23:44;;;;;;;5.90;2.83;;;14.70;88.10;;;;;;5093605;28;20343;-72
2023/10/21 08:26:09;;;;;;;4.95;2.42;;;14.70;88.10;;;;;;5097417;28;20109;-73
2023/10/21 08:28:35;;;;;;;4.88;2.00;;;14.70;88.30;;;;;;5093901;28;20032;-69
2023/10/21 08:31:01;;;;;;;6.35;1.98;;;14.70;88.20;;;;;;5108508;28;20024;-70
2023/10/21 08:33:27;;;;;;;3.05;1.48;;;14.80;88.10;;;;;;5097059;28;20444;-69
2023/10/21 08:35:52;;;;;;;2.78;1.30;;;14.80;87.90;;;;;;5098810;28;20160;-67
2023/10/21 08:38:18;;;;;;;3.58;1.48;;;14.80;87.80;;;;;;5092113;28;20043;-67
2023/10/21 08:40:47;;;;;;;2.40;1.50;;;14.90;87.70;;;;;;5088218;28;20499;-70
2023/10/21 08:43:21;;;;;;;2.45;1.02;;;15.10;87.60;;;;;;5072911;28;20032;-70
2023/10/21 08:45:48;;;;;;;2.72;1.10;;;15.40;87.20;;;;;;5087679;28;20027;-70
2023/10/21 08:48:16;;;;;;;3.45;1.40;;;15.60;86.50;;;;;;5089375;28;20146;-70
2023/10/21 08:50:43;;;;;;;3.15;1.45;;;15.80;86.10;;;;;;5092661;28;20367;-70
2023/10/21 08:53:11;;;;;;;1.33;1.00;;;15.90;85.70;;;;;;5070897;28;20674;-70
2023/10/21 08:55:41;;;;;;;2.28;1.08;;;15.90;85.50;;;;;;5075238;28;20444;-70
2023/10/21 08:58:07;;;;;;;1.92;0.90;;;15.90;85.50;;;;;;5090734;28;20040;-68
2023/10/21 09:00:33;;;;;;;3.20;1.40;;;16.10;85.30;;;;;;5089934;28;20085;-66
2023/10/21 09:03:01;;;;;;;1.90;0.80;;;16.20;85.00;;;;;;5091580;28;20115;-68
2023/10/21 09:05:27;;;;;;;2.42;1.23;;;16.30;84.70;;;;;;5097245;28;20123;-68
2023/10/21 09:07:53;;;;;;;2.92;1.35;;;16.40;84.40;;;;;;5075462;28;20540;-69
2023/10/21 09:10:20;;;;;;;2.78;0.88;;;16.40;83.90;;;;;;5095088;28;20052;-68
2023/10/21 09:12:47;;;;;;;3.78;1.27;;;16.50;83.80;;;;;;5093956;28;20438;-66
2023/10/21 09:15:13;;;;;;;3.38;0.90;;;16.40;83.70;;;;;;5098130;28;20035;-67
2023/10/21 09:17:45;;;;;;;2.88;1.00;;;16.50;83.60;;;;;;5095991;28;20031;-68
2023/10/21 09:20:13;;;;;;;3.08;1.08;;;16.60;83.20;;;;;;5096221;28;20364;-67
2023/10/21 09:22:41;;;;;;;2.30;0.90;;;16.60;83.00;;;;;;5096701;28;20032;-67
2023/10/21 09:25:14;;;;;;;2.05;1.00;;;16.50;82.80;;;;;;5097957;28;20431;-68
2023/10/21 09:27:44;;;;;;;2.22;0.95;;;16.50;82.60;;;;;;5095876;28;20082;-68
2023/10/21 09:30:15;;;;;;;1.42;0.80;;;16.50;82.80;;;;;;5112590;28;20032;-69
2023/10/21 09:32:41;;;;;;;1.42;0.95;;;16.50;82.40;;;;;;5094781;28;20089;-68
2023/10/21 09:35:13;;;;;;;2.13;1.10;;;16.50;82.30;;;;;;5098067;28;20023;-67
2023/10/21 09:37:39;;;;;;;2.20;1.00;;;16.40;81.90;;;;;;5075814;28;20024;-69
2023/10/21 09:40:06;;;;;;;3.63;0.90;;;16.40;82.00;;;;;;5083574;28;20035;-69
2023/10/21 09:42:42;;;;;;;2.88;0.90;;;16.40;82.10;;;;;;5096289;28;20024;-70
2023/10/21 09:45:10;;;;;;;1.73;0.90;;;16.30;81.90;;;;;;5077092;28;20021;-71
2023/10/21 09:47:41;;;;;;;3.50;1.00;;;16.20;81.80;;;;;;5083386;28;20024;-69
2023/10/21 09:50:10;;;;;;;1.75;0.80;;;16.20;81.60;;;;;;5084925;28;20036;-72
2023/10/21 09:52:59;;;;;;;1.67;0.77;;;16.10;81.60;;;;;;5082463;28;20052;-70
2023/10/21 09:55:25;;;;;;;1.80;1.10;;;16.10;81.50;;;;;;5088519;28;20329;-70
2023/10/21 09:57:53;;;;;;;4.00;0.95;;;16.00;81.60;;;;;;5092374;28;20044;-70
2023/10/21 10:00:19;;;;;;;3.28;0.90;;;16.00;81.60;;;;;;5087732;28;20111;-70
2023/10/21 10:02:48;;;;;;;0.52;0.52;;;16.00;81.10;;;;;;5090479;28;20147;-69
2023/10/21 10:05:16;;;;;;;1.13;0.82;;;16.00;80.80;;;;;;5102616;28;20031;-71
2023/10/21 10:07:45;;;;;;;2.88;0.80;;;16.00;80.80;;;;;;5091988;28;20114;-72
2023/10/21 10:10:13;;;;;;;1.40;0.75;;;15.90;80.60;;;;;;5094986;28;20028;-72
2023/10/21 10:12:41;;;;;;;2.15;0.70;;;15.90;80.30;;;;;;5090462;28;20043;-73
2023/10/21 10:15:27;;;;;;;2.42;1.00;;;16.00;80.20;;;;;;5077321;28;20028;-73
2023/10/21 10:17:53;;;;;;;4.30;1.00;;;16.00;80.10;;;;;;5076157;28;20047;-73
2023/10/21 10:20:23;;;;;;;4.50;0.93;;;16.00;80.10;;;;;;5082572;28;20460;-72
2023/10/21 10:23:01;;;;;;;5.28;1.13;;;16.00;79.70;;;;;;5077050;28;20024;-74
2023/10/21 10:25:34;;;;;;;3.25;1.02;;;16.00;79.50;;;;;;5115837;28;20043;-73
2023/10/21 10:28:05;;;;;;;3.63;0.95;;;16.10;79.30;;;;;;5090553;28;20017;-73
2023/10/21 10:30:32;;;;;;;3.80;1.05;;;16.20;79.10;;;;;;5093777;28;20039;-71
2023/10/21 10:33:06;;;;;;;4.07;1.00;;;16.20;78.60;;;;;;5088911;28;20028;-73
2023/10/21 10:35:42;;;;;;;3.40;1.08;;;16.30;78.30;;;;;;5090156;28;20348;-70
2023/10/21 10:38:20;;;;;;;2.17;0.90;;;16.40;78.10;;;;;;5091061;28;20027;-70
2023/10/21 10:40:47;;;;;;;3.15;1.08;;;16.50;78.00;;;;;;5089822;28;20466;-69
2023/10/21 10:43:15;;;;;;;3.08;0.70;;;16.60;77.60;;;;;;5088672;28;20028;-69
2023/10/21 10:45:41;;;;;;;2.42;0.90;;;16.70;77.40;;;;;;5090055;28;20032;-69
2023/10/21 10:48:07;;;;;;;3.85;1.05;;;16.70;77.30;;;;;;5089891;28;20119;-69
2023/10/21 10:50:37;;;;;;;3.22;1.00;;;16.70;77.20;;;;;;5088657;28;20508;-69
2023/10/21 10:53:17;;;;;;;2.50;0.80;;;16.80;76.90;;;;;;5089124;28;20043;-69
2023/10/21 10:55:50;;;;;;;3.17;1.30;;;16.90;76.10;;;;;;5087244;28;20046;-69
2023/10/21 10:58:18;;;;;;;2.15;1.17;;;17.00;76.20;;;;;;5088042;28;20047;-70
2023/10/21 11:00:45;;;;;;;4.00;1.10;;;17.20;75.80;;;;;;5089613;28;20027;-69
2023/10/21 11:03:21;;;;;;;3.03;0.85;;;17.40;75.20;;;;;;5088948;28;20085;-69
2023/10/21 11:05:48;;;;;;;2.97;0.90;;;17.40;74.70;;;;;;5089872;28;20028;-70
2023/10/21 11:08:15;;;;;;;3.88;1.00;;;17.60;74.40;;;;;;5092150;28;20041;-69
2023/10/21 11:10:41;;;;;;;3.35;1.08;;;17.70;73.70;;;;;;5088391;28;20043;-69
2023/10/21 11:13:07;;;;;;;6.28;1.30;;;17.80;73.00;;;;;;5091149;28;20032;-72
2023/10/21 11:15:55;;;;;;;6.97;1.38;;;17.70;72.70;;;;;;5083471;28;20051;-68
2023/10/21 11:18:21;;;;;;;3.33;1.20;;;17.80;72.60;;;;;;5087934;28;20033;-69
2023/10/21 11:20:48;;;;;;;1.70;0.82;;;17.80;72.80;;;;;;5087475;28;20111;-69
2023/10/21 11:23:23;;;;;;;3.47;1.10;;;17.80;72.80;;;;;;5085884;28;20096;-69
2023/10/21 11:25:57;;;;;;;3.90;1.00;;;17.70;72.80;;;;;;5080103;28;20508;-68
2023/10/21 11:28:25;;;;;;;4.03;1.20;;;17.70;72.30;;;;;;5085627;28;20028;-68
2023/10/21 11:30:51;;;;;;;3.58;1.10;;;17.90;72.30;;;;;;5070593;28;20024;-68
2023/10/21 11:33:17;;;;;;;2.08;0.90;;;18.00;71.90;;;;;;5087804;28;20081;-68
2023/10/21 11:35:45;;;;;;;5.50;1.17;;;18.10;71.50;;;;;;5089058;28;20053;-68
2023/10/21 11:38:18;;;;;;;2.05;0.93;;;18.20;70.80;;;;;;5072330;28;20428;-68
2023/10/21 11:40:46;;;;;;;4.20;1.45;;;18.20;70.40;;;;;;5088047;28;20036;-68
2023/10/21 11:43:14;;;;;;;3.55;0.95;;;18.30;70.10;;;;;;5086784;28;20028;-67
2023/10/21 11:45:40;;;;;;;5.28;1.08;;;18.40;69.80;;;;;;5086134;28;20024;-67
2023/10/21 11:48:10;;;;;;;4.00;1.10;;;18.30;69.70;;;;;;5086717;28;20024;-68
2023/10/21 11:50:47;;;;;;;5.47;1.10;;;18.40;69.50;;;;;;5084906;28;20030;-67
2023/10/21 11:53:13;;;;;;;2.80;0.80;;;18.40;69.10;;;;;;5088282;28;20032;-68
2023/10/21 12:30:26;;;;;;;4.00;1.00;;;17.90;67.70;;;;;;5093773;28;20036;-71
2023/10/21 12:45:46;;;;;;;4.72;1.30;;;17.50;67.30;;;;;;5084672;28;20036;-69
2023/10/21 12:48:19;;;;;;;5.18;1.08;;;17.40;67.10;;;;;;5082126;28;20048;-68
2023/10/21 12:50:46;;;;;;;3.75;1.15;;;17.40;66.90;;;;;;5084310;28;20042;-69
2023/10/21 12:53:12;;;;;;;3.47;1.15;;;17.40;66.90;;;;;;5074321;28;20064;-65
2023/10/21 12:55:38;;;;;;;5.90;1.50;;;17.50;66.90;;;;;;5080808;28;20053;-66
2023/10/21 12:58:04;;;;;;;5.60;1.10;;;17.40;66.70;;;;;;5077201;28;20041;-66
2023/10/21 13:00:31;;;;;;;5.20;1.17;;;17.40;66.80;;;;;;5068351;28;20027;-66
2023/10/21 13:02:57;;;;;;;5.60;1.77;;;17.30;66.90;;;;;;5085544;28;20036;-66
2023/10/21 13:05:23;;;;;;;6.47;1.83;;;17.30;66.80;;;;;;5088280;28;20493;-66
2023/10/21 13:07:49;;;;;;;4.07;1.10;;;17.20;66.80;;;;;;5083791;28;20112;-65
2023/10/21 13:10:15;;;;;;;6.60;1.00;;;17.20;66.80;;;;;;5087641;28;20101;-66
2023/10/21 13:12:41;;;;;;;4.35;1.27;;;17.30;66.90;;;;;;5084243;28;20036;-66
2023/10/21 13:15:14;;;;;;;6.20;1.40;;;17.30;66.70;;;;;;5085104;28;20020;-66
2023/10/21 13:17:41;;;;;;;5.22;1.50;;;17.30;66.70;;;;;;5082385;28;20488;-66
2023/10/21 13:20:16;;;;;;;5.20;1.17;;;17.20;66.40;;;;;;5082236;28;20020;-66
2023/10/21 13:22:45;;;;;;;8.85;1.70;;;17.20;66.20;;;;;;5090750;28;20036;-66
2023/10/21 13:25:13;;;;;;;5.72;1.35;;;17.10;65.90;;;;;;5082993;28;20121;-66
2023/10/21 13:27:40;;;;;;;3.95;1.40;;;17.10;66.00;;;;;;5084313;28;20028;-66
2023/10/21 13:30:10;;;;;;;7.07;1.38;;;17.10;65.80;;;;;;5084978;28;20043;-66
2023/10/21 13:32:43;;;;;;;4.77;1.20;;;17.10;65.60;;;;;;5068410;28;20121;-66